Hartford, Connecticut
Traffic Map
Current Weather Conditions
Hartford, Connecticut
Clear
Clear

Feels Like: 0°
Wind Chill: Ceiling: Unl
Heat Index: Visibility: 10mi
Dew Point: -4° Wind: 3mph
Humidity: 73% Direction: 120° (ESE)
Pressure: 30.02in Gusts: 0mph
Raw Report DataKHFD 120153Z 12003KT 10SM CLR 00/M04 A3002 RMK AO2 SLP164 T00001044
Traffic Incident Summary
Active as of:
Severity:
Category:
InformationThere was an issue retrieving the traffic information for this location. Please try a different location or try again shortly.
Advertisements